Time;durP1;ratioP1;P1;durP2;ratioP2;P2;SDS_P1;SDS_P2;PMS_P1;PMS_P2;Temp;Humidity;BMP_temperature;BMP_pressure;BME280_temperature;BME280_humidity;BME280_pressure;Samples;Min_cycle;Max_cycle;Signal;HPM_P1;HPM_P2
2022/03/01 00:03:48;;;;;;;10.40;6.03;;;3.40;99.90;;;;;;7353280;32;21358;-59
2022/03/01 00:07:50;;;;;;;10.65;5.97;;;3.20;99.90;;;;;;7358591;32;20435;-59
2022/03/01 00:11:51;;;;;;;9.70;5.53;;;3.10;99.90;;;;;;7355930;32;20361;-60
2022/03/01 00:15:53;;;;;;;9.57;5.65;;;3.10;99.90;;;;;;7350068;32;20119;-59
2022/03/01 00:19:55;;;;;;;7.68;4.90;;;3.00;99.90;;;;;;7360651;32;20249;-60
2022/03/01 00:23:57;;;;;;;9.73;5.20;;;2.90;99.90;;;;;;7352056;32;20111;-59
2022/03/01 00:27:59;;;;;;;8.90;5.20;;;2.80;99.90;;;;;;7355343;32;20140;-60
2022/03/01 00:32:01;;;;;;;9.95;5.18;;;2.70;99.90;;;;;;7355550;32;20459;-58
2022/03/01 00:36:03;;;;;;;15.18;5.72;;;2.60;99.90;;;;;;7358019;32;20099;-60
2022/03/01 00:40:05;;;;;;;9.93;5.57;;;2.50;99.90;;;;;;7356770;32;20214;-61
2022/03/01 00:44:07;;;;;;;11.00;5.15;;;2.30;99.90;;;;;;7361876;32;20107;-59
2022/03/01 00:48:09;;;;;;;10.60;5.93;;;2.10;99.90;;;;;;7365228;32;20103;-60
2022/03/01 00:52:10;;;;;;;11.02;6.18;;;2.00;99.90;;;;;;7361156;32;20149;-60
2022/03/01 00:56:12;;;;;;;8.52;4.93;;;1.90;99.90;;;;;;7338987;32;20742;-59
2022/03/01 01:00:14;;;;;;;9.25;5.32;;;1.70;99.90;;;;;;7355255;32;20265;-59
2022/03/01 01:04:16;;;;;;;8.57;5.50;;;1.70;99.90;;;;;;7357054;32;20186;-60
2022/03/01 01:08:19;;;;;;;9.02;5.55;;;1.70;99.90;;;;;;7364461;32;20103;-60
2022/03/01 01:12:21;;;;;;;10.77;5.65;;;1.80;99.90;;;;;;7353575;32;20139;-60
2022/03/01 01:16:22;;;;;;;13.95;7.45;;;2.10;99.90;;;;;;7356678;32;20121;-60
2022/03/01 01:20:24;;;;;;;48.90;25.92;;;2.20;99.90;;;;;;7356335;32;20126;-58
2022/03/01 01:24:26;;;;;;;57.72;29.40;;;2.00;99.90;;;;;;7347516;32;20135;-59
2022/03/01 01:28:28;;;;;;;42.83;24.37;;;1.80;99.90;;;;;;7349389;32;20122;-59
2022/03/01 01:32:30;;;;;;;29.67;16.65;;;1.80;99.90;;;;;;7351647;32;20471;-60
2022/03/01 01:36:31;;;;;;;26.35;13.32;;;1.80;99.90;;;;;;7350204;32;20133;-63
2022/03/01 01:40:34;;;;;;;22.33;11.15;;;1.70;99.90;;;;;;7361893;32;20133;-60
2022/03/01 01:44:36;;;;;;;13.85;7.75;;;1.70;99.90;;;;;;7367814;32;20446;-60
2022/03/01 01:48:38;;;;;;;10.75;5.82;;;1.60;99.90;;;;;;7360403;32;20486;-60
2022/03/01 01:52:39;;;;;;;12.05;5.55;;;1.90;99.90;;;;;;7358094;32;20169;-60
2022/03/01 01:56:41;;;;;;;9.02;5.47;;;2.20;99.90;;;;;;7363124;32;20744;-59
2022/03/01 02:00:44;;;;;;;10.70;5.87;;;2.40;99.90;;;;;;7366449;32;20332;-59
2022/03/01 02:04:47;;;;;;;10.93;5.75;;;2.60;99.90;;;;;;7363852;32;20120;-59
2022/03/01 02:08:48;;;;;;;9.10;5.35;;;2.90;99.90;;;;;;7364921;32;20212;-59
2022/03/01 02:12:50;;;;;;;9.77;5.15;;;3.00;99.90;;;;;;7362800;32;20135;-59
2022/03/01 02:16:52;;;;;;;9.45;4.93;;;3.10;99.90;;;;;;7363190;32;20266;-60
2022/03/01 02:20:54;;;;;;;9.80;5.32;;;3.40;99.90;;;;;;7364273;32;20358;-60
2022/03/01 02:24:56;;;;;;;8.35;5.18;;;3.40;99.90;;;;;;7359010;32;20146;-60
2022/03/01 02:28:58;;;;;;;14.90;5.62;;;3.60;99.90;;;;;;7359595;32;20173;-60
2022/03/01 02:32:59;;;;;;;9.00;5.32;;;3.60;99.90;;;;;;7364525;32;20108;-59
2022/03/01 02:37:01;;;;;;;9.73;5.03;;;3.50;99.90;;;;;;7356944;32;20581;-61
2022/03/01 02:41:03;;;;;;;11.43;5.97;;;3.50;99.90;;;;;;7365297;32;20243;-61
2022/03/01 02:45:06;;;;;;;11.05;6.00;;;3.50;99.90;;;;;;7356116;32;20194;-60
2022/03/01 02:49:10;;;;;;;11.18;6.12;;;3.50;99.90;;;;;;7356976;32;20107;-60
2022/03/01 02:53:12;;;;;;;9.90;5.65;;;3.50;99.90;;;;;;7361518;32;20179;-61
2022/03/01 02:57:14;;;;;;;12.18;6.05;;;3.40;99.90;;;;;;7359237;32;20110;-59
2022/03/01 03:01:16;;;;;;;10.02;5.53;;;3.40;99.90;;;;;;7361199;32;20469;-59
2022/03/01 03:05:18;;;;;;;8.55;5.82;;;3.50;99.90;;;;;;7357508;32;20539;-61
2022/03/01 03:09:21;;;;;;;9.70;5.68;;;3.50;99.90;;;;;;7354267;32;20225;-59
2022/03/01 03:13:24;;;;;;;10.52;6.07;;;3.50;99.90;;;;;;7361478;32;20556;-59
2022/03/01 03:17:25;;;;;;;10.13;5.32;;;3.60;99.90;;;;;;7352509;32;20110;-60
2022/03/01 03:21:27;;;;;;;9.30;5.40;;;3.80;99.90;;;;;;7356753;32;20129;-58
2022/03/01 03:25:29;;;;;;;11.20;5.85;;;3.70;99.90;;;;;;7358004;32;20251;-60
2022/03/01 03:29:30;;;;;;;10.25;5.00;;;3.70;99.90;;;;;;7363798;32;20167;-61
2022/03/01 03:33:32;;;;;;;9.93;5.43;;;3.80;99.90;;;;;;7357511;32;20538;-60
2022/03/01 03:37:34;;;;;;;7.70;5.25;;;3.80;99.90;;;;;;7354450;32;20230;-60
2022/03/01 03:41:36;;;;;;;9.63;5.18;;;3.70;99.90;;;;;;7352640;32;20570;-59
2022/03/01 03:45:38;;;;;;;8.02;5.18;;;3.70;99.90;;;;;;7361872;32;20717;-59
2022/03/01 03:49:40;;;;;;;8.60;4.72;;;3.70;99.90;;;;;;7361524;32;20129;-59
2022/03/01 03:53:42;;;;;;;11.60;5.70;;;3.70;99.90;;;;;;7358236;32;20234;-59
2022/03/01 03:57:43;;;;;;;9.70;5.07;;;3.70;99.90;;;;;;7354916;32;20748;-59
2022/03/01 04:01:45;;;;;;;9.82;5.10;;;3.70;99.90;;;;;;7357759;32;20296;-60
2022/03/01 04:05:47;;;;;;;9.60;5.60;;;3.70;99.90;;;;;;7351923;32;20107;-61
2022/03/01 04:09:49;;;;;;;10.77;5.10;;;3.70;99.90;;;;;;7358593;32;20190;-60
2022/03/01 04:13:52;;;;;;;8.50;5.22;;;3.70;99.90;;;;;;7355752;32;20144;-60
2022/03/01 04:17:54;;;;;;;9.23;4.97;;;3.50;99.90;;;;;;7360366;32;20120;-60
2022/03/01 04:21:55;;;;;;;7.47;4.78;;;3.50;99.90;;;;;;7363998;32;20190;-59
2022/03/01 04:25:57;;;;;;;9.25;5.45;;;3.40;99.90;;;;;;7357752;32;20225;-59
2022/03/01 04:30:16;;;;;;;10.27;5.78;;;3.50;99.90;;;;;;7361038;32;20218;-58
2022/03/01 04:34:18;;;;;;;8.90;4.80;;;3.40;99.90;;;;;;7356155;32;20130;-58
2022/03/01 04:38:20;;;;;;;9.65;5.85;;;3.30;99.90;;;;;;7364521;32;20119;-59
2022/03/01 04:42:22;;;;;;;9.57;5.65;;;3.20;99.90;;;;;;7358101;32;20749;-59
2022/03/01 04:46:24;;;;;;;12.00;5.85;;;3.20;99.90;;;;;;7356595;32;20577;-59
2022/03/01 04:50:27;;;;;;;11.00;5.28;;;3.10;99.90;;;;;;7355468;32;20194;-59
2022/03/01 04:54:28;;;;;;;11.10;5.50;;;3.10;99.90;;;;;;7357384;32;20221;-58
2022/03/01 04:58:30;;;;;;;9.25;5.60;;;3.10;99.90;;;;;;7353520;32;20130;-59
2022/03/01 05:02:32;;;;;;;9.85;6.00;;;3.20;99.90;;;;;;7360902;32;20111;-59
2022/03/01 05:06:34;;;;;;;9.00;5.28;;;3.10;99.90;;;;;;7357654;32;20123;-61
2022/03/01 05:10:35;;;;;;;10.30;5.40;;;3.10;99.90;;;;;;7365965;32;20244;-58
2022/03/01 05:14:43;;;;;;;13.60;5.93;;;3.10;99.90;;;;;;7364566;32;20276;-58
2022/03/01 05:18:44;;;;;;;10.70;5.62;;;3.10;99.90;;;;;;7364465;32;20253;-58
2022/03/01 05:23:01;;;;;;;10.50;5.90;;;3.20;99.90;;;;;;7360184;32;20249;-59
2022/03/01 05:27:03;;;;;;;11.30;5.95;;;3.10;99.90;;;;;;7363505;32;20191;-58
2022/03/01 05:31:05;;;;;;;9.85;5.75;;;3.30;99.90;;;;;;7360811;32;20483;-59
2022/03/01 05:35:17;;;;;;;10.68;6.03;;;3.30;99.90;;;;;;7359363;32;20141;-58
2022/03/01 05:39:19;;;;;;;11.32;5.90;;;3.30;99.90;;;;;;7356057;32;20111;-59
2022/03/01 05:43:21;;;;;;;9.40;5.68;;;3.30;99.90;;;;;;7359040;32;20794;-58
2022/03/01 05:47:23;;;;;;;11.45;6.30;;;3.30;99.90;;;;;;7359485;32;20859;-59
2022/03/01 05:51:24;;;;;;;12.13;6.75;;;3.40;99.90;;;;;;7357873;32;20203;-59
2022/03/01 05:55:27;;;;;;;10.48;6.22;;;3.30;99.90;;;;;;7366583;32;20190;-59
2022/03/01 05:59:28;;;;;;;11.77;6.12;;;3.40;99.90;;;;;;7359422;32;20130;-59
2022/03/01 06:03:30;;;;;;;9.98;5.57;;;3.40;99.90;;;;;;7357102;32;20134;-59
2022/03/01 06:07:32;;;;;;;12.10;6.35;;;3.40;99.90;;;;;;7366064;32;20467;-60
2022/03/01 06:11:34;;;;;;;11.02;6.25;;;3.40;99.90;;;;;;7362446;32;20125;-60
2022/03/01 06:15:35;;;;;;;12.90;6.20;;;3.50;99.90;;;;;;7365536;32;20107;-58
2022/03/01 06:19:37;;;;;;;13.00;6.18;;;3.50;99.90;;;;;;7369698;32;20119;-58
2022/03/01 06:23:41;;;;;;;10.15;6.37;;;3.50;99.90;;;;;;7361315;32;20166;-57
2022/03/01 06:27:43;;;;;;;11.20;6.72;;;3.40;99.90;;;;;;7367525;32;20763;-57
2022/03/01 06:31:45;;;;;;;10.73;6.10;;;3.40;99.90;;;;;;7357697;32;20099;-61
2022/03/01 06:35:47;;;;;;;11.25;6.25;;;3.40;99.90;;;;;;7352935;32;20195;-59
2022/03/01 06:39:50;;;;;;;12.20;6.80;;;3.30;99.90;;;;;;7365539;32;20122;-59
2022/03/01 06:43:52;;;;;;;13.95;6.15;;;3.30;99.90;;;;;;7365122;32;20103;-58
2022/03/01 06:47:54;;;;;;;12.95;6.97;;;3.50;99.90;;;;;;7367562;32;20525;-59
2022/03/01 06:51:56;;;;;;;12.40;6.37;;;3.50;99.90;;;;;;7361587;32;20944;-58
2022/03/01 06:55:57;;;;;;;12.40;6.25;;;3.50;99.90;;;;;;7358073;32;20115;-57
2022/03/01 07:00:00;;;;;;;11.20;6.45;;;3.70;99.90;;;;;;7357912;32;20162;-58
2022/03/01 07:04:01;;;;;;;14.32;6.55;;;3.70;99.90;;;;;;7357544;32;20229;-59
2022/03/01 07:08:03;;;;;;;10.48;6.22;;;3.70;99.90;;;;;;7358125;32;20091;-58
2022/03/01 07:12:06;;;;;;;10.52;6.53;;;3.60;99.90;;;;;;7355940;32;20103;-60
2022/03/01 07:16:07;;;;;;;14.77;6.20;;;3.70;99.90;;;;;;7362102;32;20129;-59
2022/03/01 07:20:11;;;;;;;13.48;6.60;;;3.80;99.90;;;;;;7355737;32;20207;-58
2022/03/01 07:24:12;;;;;;;13.90;7.53;;;3.90;99.90;;;;;;7358067;32;20805;-58
2022/03/01 07:28:15;;;;;;;13.77;6.72;;;3.90;99.90;;;;;;7360524;32;20094;-58
2022/03/01 07:32:16;;;;;;;16.08;6.68;;;4.00;99.90;;;;;;7357422;32;20508;-57
2022/03/01 07:36:18;;;;;;;11.73;6.35;;;4.00;99.90;;;;;;7360590;32;20111;-58
2022/03/01 07:40:21;;;;;;;16.12;6.57;;;4.20;99.90;;;;;;7355759;32;20107;-60
2022/03/01 07:44:23;;;;;;;14.15;7.43;;;4.30;99.90;;;;;;7361608;32;20225;-57
2022/03/01 07:48:25;;;;;;;13.65;7.12;;;4.30;99.90;;;;;;7361526;32;20122;-59
2022/03/01 07:52:27;;;;;;;12.25;7.00;;;4.40;99.90;;;;;;7360339;32;20573;-60
2022/03/01 07:56:29;;;;;;;11.45;6.93;;;4.40;99.90;;;;;;7363843;32;20111;-59
2022/03/01 08:00:31;;;;;;;15.05;7.10;;;4.40;99.90;;;;;;7351701;32;20102;-58
2022/03/01 08:04:33;;;;;;;15.02;7.30;;;4.50;99.90;;;;;;7360004;32;20126;-60
2022/03/01 08:08:35;;;;;;;11.48;6.70;;;4.60;99.90;;;;;;7358764;32;20210;-58
2022/03/01 08:12:37;;;;;;;12.98;7.00;;;4.70;99.90;;;;;;7357649;32;20223;-58
2022/03/01 08:16:38;;;;;;;13.35;7.18;;;4.80;99.90;;;;;;7356823;32;20186;-58
2022/03/01 08:20:40;;;;;;;11.77;6.93;;;4.90;99.90;;;;;;7356073;32;20375;-60
2022/03/01 08:24:42;;;;;;;13.88;6.87;;;4.90;99.90;;;;;;7355007;32;20171;-58
2022/03/01 08:28:46;;;;;;;12.35;6.97;;;4.90;99.90;;;;;;7362565;32;20103;-59
2022/03/01 08:32:49;;;;;;;11.52;6.40;;;5.20;99.90;;;;;;7361591;32;20110;-63
2022/03/01 08:36:50;;;;;;;17.83;7.45;;;5.40;99.90;;;;;;7357861;32;20119;-60
2022/03/01 08:40:53;;;;;;;16.40;7.18;;;5.30;99.90;;;;;;7359437;32;20103;-60
2022/03/01 08:44:55;;;;;;;15.80;7.40;;;5.40;99.90;;;;;;7355105;32;20478;-59
2022/03/01 08:49:03;;;;;;;14.18;6.70;;;5.50;99.90;;;;;;7359587;32;21009;-60
2022/03/01 08:53:05;;;;;;;13.20;7.25;;;5.60;99.90;;;;;;7358052;32;20664;-59
2022/03/01 08:57:06;;;;;;;12.18;6.55;;;5.70;99.90;;;;;;7361480;32;20198;-59
2022/03/01 09:01:08;;;;;;;12.63;6.55;;;6.00;99.90;;;;;;7358062;32;20193;-61
2022/03/01 09:05:11;;;;;;;14.90;6.45;;;6.20;99.60;;;;;;7357042;32;20098;-59
2022/03/01 09:09:12;;;;;;;12.32;6.57;;;6.20;97.30;;;;;;7358809;32;20126;-59
2022/03/01 09:13:15;;;;;;;11.52;6.50;;;6.50;97.00;;;;;;7359924;32;20214;-60
2022/03/01 09:17:17;;;;;;;12.40;7.22;;;6.60;95.10;;;;;;7359652;32;20190;-60
2022/03/01 09:21:18;;;;;;;11.85;6.97;;;6.80;94.10;;;;;;7361028;32;20518;-57
2022/03/01 09:25:20;;;;;;;10.23;6.15;;;7.10;94.00;;;;;;7356618;32;20130;-60
2022/03/01 09:29:22;;;;;;;14.25;7.35;;;7.20;95.90;;;;;;7357009;32;20111;-61
2022/03/01 09:33:24;;;;;;;12.65;7.10;;;6.80;92.80;;;;;;7354331;32;22174;-60
2022/03/01 09:37:25;;;;;;;13.30;6.90;;;6.80;91.60;;;;;;7358126;32;20130;-59
2022/03/01 09:41:27;;;;;;;10.93;6.15;;;6.70;92.30;;;;;;7352342;32;20310;-60
2022/03/01 09:45:29;;;;;;;13.32;7.20;;;6.60;91.10;;;;;;7355365;32;20107;-60
2022/03/01 09:49:31;;;;;;;13.18;6.80;;;7.20;91.00;;;;;;7358331;32;20115;-59
2022/03/01 09:53:34;;;;;;;12.65;6.87;;;8.70;91.20;;;;;;7356358;32;20119;-57
2022/03/01 09:57:36;;;;;;;13.85;7.10;;;9.70;74.00;;;;;;7363566;32;20681;-60
2022/03/01 10:01:46;;;;;;;13.13;6.80;;;9.90;71.80;;;;;;7366523;32;20344;-60
2022/03/01 10:10:53;;;;;;;15.95;7.15;;;10.30;66.00;;;;;;7350800;32;20379;-60
2022/03/01 10:30:48;;;;;;;13.07;6.35;;;9.30;68.60;;;;;;7362653;32;20954;-58
2022/03/01 10:34:59;;;;;;;11.45;6.30;;;9.50;66.50;;;;;;7359482;32;20603;-58
2022/03/01 10:44:06;;;;;;;13.77;6.65;;;9.30;63.00;;;;;;7355521;32;20194;-59
2022/03/01 10:48:11;;;;;;;11.95;6.82;;;9.20;63.00;;;;;;7363701;32;20218;-59
2022/03/01 10:52:14;;;;;;;10.57;6.10;;;9.40;64.30;;;;;;7354315;32;20215;-59
2022/03/01 10:56:16;;;;;;;12.90;6.50;;;9.60;62.80;;;;;;7356931;32;20129;-59
2022/03/01 11:00:18;;;;;;;11.93;6.40;;;9.50;61.20;;;;;;7350635;32;20273;-58
2022/03/01 11:04:24;;;;;;;10.35;5.90;;;9.50;62.50;;;;;;7355985;32;20814;-59
2022/03/01 11:08:39;;;;;;;13.65;6.57;;;9.60;62.00;;;;;;7361858;32;20220;-59
2022/03/01 11:12:42;;;;;;;11.45;6.18;;;9.20;60.80;;;;;;7354812;32;20335;-60
2022/03/01 11:17:05;;;;;;;12.50;5.87;;;9.20;62.10;;;;;;7359409;32;20126;-58
2022/03/01 11:21:08;;;;;;;11.80;6.60;;;9.30;68.00;;;;;;7355362;32;20589;-58
2022/03/01 11:25:25;;;;;;;12.35;6.60;;;9.20;62.40;;;;;;7354461;32;20103;-59
2022/03/01 11:29:27;;;;;;;11.45;6.65;;;9.30;67.80;;;;;;7359592;32;20522;-58
2022/03/01 11:33:35;;;;;;;12.23;6.50;;;9.10;62.70;;;;;;7358992;32;20604;-60
2022/03/01 11:37:37;;;;;;;11.25;6.47;;;9.40;64.20;;;;;;7361043;32;20180;-60
2022/03/01 11:41:43;;;;;;;12.07;6.37;;;9.90;65.90;;;;;;7362106;32;20107;-59
2022/03/01 11:45:53;;;;;;;10.10;6.32;;;10.10;62.70;;;;;;7360171;32;20199;-59
2022/03/01 11:49:56;;;;;;;11.63;6.80;;;9.70;61.10;;;;;;7349722;32;20178;-58
2022/03/01 11:54:00;;;;;;;15.32;6.70;;;9.70;60.60;;;;;;7353289;32;20583;-59
2022/03/01 11:58:03;;;;;;;10.40;5.87;;;9.70;63.20;;;;;;7361079;32;20107;-60
2022/03/01 12:02:10;;;;;;;11.88;6.47;;;9.60;62.30;;;;;;7352311;32;20500;-60
2022/03/01 12:06:12;;;;;;;13.13;6.93;;;9.70;65.50;;;;;;7355133;32;20793;-60
2022/03/01 12:10:20;;;;;;;13.40;6.78;;;9.80;65.40;;;;;;7355343;32;20130;-58
2022/03/01 12:14:29;;;;;;;9.63;5.75;;;10.00;63.50;;;;;;7356560;32;20547;-60
2022/03/01 12:18:36;;;;;;;10.82;6.28;;;10.30;65.80;;;;;;7358701;32;20240;-60
2022/03/01 12:22:48;;;;;;;;;;;10.10;59.20;;;;;;7359831;32;20229;-58
2022/03/01 12:26:55;;;;;;;13.15;6.30;;;10.20;59.40;;;;;;7356842;32;20057;-59
2022/03/01 12:30:58;;;;;;;9.73;5.50;;;10.10;59.60;;;;;;7362476;32;20102;-58
2022/03/01 12:35:01;;;;;;;13.30;5.65;;;9.90;59.70;;;;;;7355302;32;20273;-59
2022/03/01 12:39:08;;;;;;;9.80;6.18;;;10.00;61.70;;;;;;7357898;32;20830;-60
2022/03/01 12:43:14;;;;;;;11.27;6.10;;;10.10;60.00;;;;;;7357075;32;20154;-59
2022/03/01 12:47:17;;;;;;;10.10;6.18;;;10.00;60.70;;;;;;7360749;32;20110;-59
2022/03/01 12:51:19;;;;;;;13.32;5.70;;;10.30;60.10;;;;;;7356212;32;20204;-59
2022/03/01 12:55:22;;;;;;;10.95;5.78;;;10.50;58.60;;;;;;7357308;32;20572;-61
2022/03/01 12:59:27;;;;;;;9.55;5.95;;;10.40;58.00;;;;;;7352832;32;20273;-59
2022/03/01 13:03:30;;;;;;;10.43;5.80;;;10.10;58.70;;;;;;7356424;32;20307;-60
2022/03/01 13:07:32;;;;;;;9.38;5.82;;;10.00;57.00;;;;;;7355247;32;20137;-59
2022/03/01 13:11:35;;;;;;;12.20;5.72;;;10.10;59.10;;;;;;7357368;32;20649;-58
2022/03/01 13:15:37;;;;;;;10.48;6.03;;;10.30;60.10;;;;;;7358016;32;20315;-60
2022/03/01 13:19:42;;;;;;;9.13;5.93;;;10.60;55.80;;;;;;7357748;32;20230;-58
2022/03/01 13:23:43;;;;;;;10.00;6.03;;;10.70;55.50;;;;;;7361262;32;20486;-59
2022/03/01 13:27:49;;;;;;;12.52;5.53;;;10.90;55.30;;;;;;7365487;32;20129;-58
2022/03/01 13:32:16;;;;;;;10.38;6.12;;;10.90;55.10;;;;;;7356166;32;20591;-59
2022/03/01 13:36:18;;;;;;;9.27;5.73;;;10.50;55.00;;;;;;7360074;32;20111;-59
2022/03/01 13:40:20;;;;;;;10.82;5.72;;;10.50;55.40;;;;;;7359457;32;20601;-59
2022/03/01 13:44:24;;;;;;;10.80;5.50;;;10.70;56.10;;;;;;7362988;32;20194;-59
2022/03/01 13:48:29;;;;;;;12.68;5.65;;;10.90;55.70;;;;;;7364523;32;20126;-57
2022/03/01 13:52:39;;;;;;;10.73;5.90;;;10.90;56.40;;;;;;7362949;32;20111;-57
2022/03/01 13:56:49;;;;;;;8.18;5.45;;;10.90;55.70;;;;;;7360253;32;20095;-59
2022/03/01 14:00:54;;;;;;;10.57;6.53;;;10.90;55.60;;;;;;7364863;32;20107;-59
2022/03/01 14:05:18;;;;;;;11.20;6.18;;;11.00;56.60;;;;;;7351394;32;20299;-58
2022/03/01 14:09:20;;;;;;;9.15;5.80;;;11.10;58.00;;;;;;7359471;32;20175;-58
2022/03/01 14:13:43;;;;;;;10.15;5.68;;;11.10;57.50;;;;;;7354431;32;20194;-59
2022/03/01 14:17:55;;;;;;;13.95;6.10;;;11.10;57.60;;;;;;7355347;32;21690;-59
2022/03/01 14:21:56;;;;;;;9.98;5.78;;;11.10;57.20;;;;;;7354779;32;20195;-60
2022/03/01 14:25:58;;;;;;;12.02;6.00;;;11.00;57.80;;;;;;7360284;32;20191;-59
2022/03/01 14:30:00;;;;;;;11.05;6.37;;;11.10;55.90;;;;;;7367870;32;20515;-59
2022/03/01 14:34:03;;;;;;;10.73;5.80;;;11.00;54.50;;;;;;7356402;32;20262;-58
2022/03/01 14:38:05;;;;;;;8.88;5.65;;;10.70;53.70;;;;;;7352931;32;20493;-59
2022/03/01 14:42:07;;;;;;;11.12;5.57;;;10.50;53.90;;;;;;7354194;32;20129;-58
2022/03/01 14:46:09;;;;;;;9.10;5.40;;;10.60;56.00;;;;;;7359509;32;20154;-59
2022/03/01 14:50:11;;;;;;;9.18;6.12;;;10.60;56.70;;;;;;7357942;32;20122;-59
2022/03/01 14:54:12;;;;;;;11.35;5.78;;;10.80;57.10;;;;;;7356382;32;20144;-59
2022/03/01 14:58:14;;;;;;;11.73;5.60;;;10.60;55.90;;;;;;7365954;32;20128;-59
2022/03/01 15:02:16;;;;;;;11.02;5.60;;;10.40;57.60;;;;;;7355914;32;20197;-59
2022/03/01 15:06:19;;;;;;;10.05;5.70;;;10.40;57.70;;;;;;7358504;32;20254;-59
2022/03/01 15:10:20;;;;;;;10.80;6.35;;;10.10;58.80;;;;;;7355042;32;20240;-59
2022/03/01 15:14:22;;;;;;;10.00;5.62;;;10.00;59.60;;;;;;7354920;32;20586;-58
2022/03/01 15:18:24;;;;;;;11.23;6.20;;;10.00;59.40;;;;;;7362975;32;20130;-59
2022/03/01 15:22:26;;;;;;;11.60;6.25;;;10.00;61.20;;;;;;7360422;32;20253;-60
2022/03/01 15:26:28;;;;;;;10.98;5.93;;;9.90;60.00;;;;;;7363749;32;20806;-58
2022/03/01 15:30:30;;;;;;;9.48;5.57;;;9.70;61.20;;;;;;7358125;32;20774;-56
2022/03/01 15:34:32;;;;;;;9.32;5.70;;;9.70;62.30;;;;;;7366064;32;20210;-57
2022/03/01 15:38:34;;;;;;;14.45;9.15;;;9.60;64.00;;;;;;7358374;32;20107;-59
2022/03/01 15:42:37;;;;;;;11.85;5.50;;;9.50;61.10;;;;;;7359668;32;20144;-60
2022/03/01 15:46:38;;;;;;;13.57;5.55;;;9.40;61.70;;;;;;7356858;32;20202;-60
2022/03/01 15:50:41;;;;;;;11.15;6.43;;;9.40;61.40;;;;;;7354740;32;20107;-61
2022/03/01 15:54:42;;;;;;;13.55;6.20;;;9.40;62.00;;;;;;7358417;32;20433;-60
2022/03/01 15:58:45;;;;;;;12.32;5.32;;;9.30;62.00;;;;;;7362972;32;20186;-60
2022/03/01 16:02:47;;;;;;;8.85;5.43;;;9.20;67.00;;;;;;7364147;32;20564;-59
2022/03/01 16:06:49;;;;;;;11.50;6.25;;;9.20;68.20;;;;;;7352451;32;20506;-59
2022/03/01 16:10:51;;;;;;;8.93;5.40;;;9.10;67.80;;;;;;7361229;32;20157;-59
2022/03/01 16:14:53;;;;;;;11.18;6.07;;;8.90;69.60;;;;;;7355640;32;20107;-60
2022/03/01 16:18:56;;;;;;;9.13;5.53;;;8.90;68.50;;;;;;7357541;32;20273;-60
2022/03/01 16:22:58;;;;;;;10.38;5.72;;;8.80;68.30;;;;;;7354003;32;20111;-61
2022/03/01 16:27:00;;;;;;;11.20;6.22;;;8.80;77.60;;;;;;7358200;32;20241;-61
2022/03/01 16:31:03;;;;;;;11.18;5.90;;;8.70;75.10;;;;;;7355111;32;20131;-58
2022/03/01 16:35:06;;;;;;;12.27;6.30;;;8.60;70.30;;;;;;7354250;32;20779;-57
2022/03/01 16:39:08;;;;;;;10.52;6.20;;;8.60;73.90;;;;;;7348318;32;20356;-58
2022/03/01 16:43:10;;;;;;;10.75;6.18;;;8.60;72.80;;;;;;7345289;32;20129;-59
2022/03/01 16:47:12;;;;;;;11.73;6.18;;;8.50;77.10;;;;;;7355647;32;20103;-58
2022/03/01 16:51:14;;;;;;;14.93;6.53;;;8.40;75.50;;;;;;7347257;32;20256;-58
2022/03/01 16:55:16;;;;;;;11.50;6.40;;;8.30;74.10;;;;;;7348798;32;20134;-58
2022/03/01 16:59:19;;;;;;;12.35;6.30;;;8.10;77.10;;;;;;7360772;32;20191;-58
2022/03/01 17:03:20;;;;;;;10.52;6.18;;;8.00;78.40;;;;;;7344990;32;20557;-59
2022/03/01 17:07:22;;;;;;;11.90;6.47;;;7.90;90.00;;;;;;7356234;32;20613;-59
2022/03/01 17:11:24;;;;;;;15.70;6.55;;;7.70;92.80;;;;;;7360919;32;20165;-58
2022/03/01 17:15:30;;;;;;;16.17;6.57;;;7.60;96.60;;;;;;7347606;32;20777;-58
2022/03/01 17:19:32;;;;;;;12.30;6.03;;;7.50;99.90;;;;;;7352299;32;20562;-58
2022/03/01 17:23:36;;;;;;;12.50;6.03;;;7.40;99.90;;;;;;7362544;32;20526;-59
2022/03/01 17:27:40;;;;;;;15.63;8.43;;;7.10;99.90;;;;;;7362542;32;20728;-58
2022/03/01 17:31:42;;;;;;;16.50;8.73;;;7.00;99.90;;;;;;7356744;32;20135;-59
2022/03/01 17:35:44;;;;;;;13.50;7.60;;;6.90;99.90;;;;;;7363585;32;20447;-60
2022/03/01 17:39:47;;;;;;;12.05;5.97;;;6.90;99.90;;;;;;7360506;32;20446;-58
2022/03/01 17:43:48;;;;;;;12.65;6.87;;;6.80;99.90;;;;;;7356165;32;20824;-59
2022/03/01 17:47:54;;;;;;;12.02;5.87;;;6.70;99.90;;;;;;7354337;32;20127;-59
2022/03/01 17:51:56;;;;;;;13.70;6.60;;;6.60;99.90;;;;;;7354486;32;20123;-59
2022/03/01 17:55:58;;;;;;;11.30;6.68;;;6.60;99.90;;;;;;7357369;32;20542;-60
2022/03/01 17:59:59;;;;;;;13.23;7.22;;;6.50;99.90;;;;;;7370856;32;20152;-59
2022/03/01 18:04:02;;;;;;;11.70;6.10;;;6.40;99.90;;;;;;7360829;32;20569;-59
2022/03/01 18:08:04;;;;;;;16.50;7.25;;;6.40;99.90;;;;;;7366292;32;20134;-58
2022/03/01 18:12:06;;;;;;;16.90;8.43;;;6.20;99.90;;;;;;7366284;32;20125;-59
2022/03/01 18:16:08;;;;;;;16.58;8.35;;;6.10;99.90;;;;;;7362708;32;20227;-59
2022/03/01 18:20:11;;;;;;;18.60;8.10;;;6.00;99.90;;;;;;7354273;32;20581;-58
2022/03/01 18:24:12;;;;;;;14.25;7.53;;;5.90;99.90;;;;;;7357157;32;20102;-58
2022/03/01 18:28:14;;;;;;;17.75;8.63;;;5.80;99.90;;;;;;7363431;32;20111;-59
2022/03/01 18:32:16;;;;;;;16.73;7.45;;;5.60;99.90;;;;;;7359206;32;20111;-57
2022/03/01 18:36:19;;;;;;;16.30;8.15;;;5.50;99.90;;;;;;7359622;32;20231;-59
2022/03/01 18:40:21;;;;;;;14.45;6.45;;;5.20;99.90;;;;;;7358972;32;20130;-59
2022/03/01 18:44:22;;;;;;;15.73;7.00;;;5.10;99.90;;;;;;7365739;32;20928;-59
2022/03/01 18:48:24;;;;;;;19.50;9.68;;;4.90;99.90;;;;;;7363374;32;20201;-59
2022/03/01 18:52:26;;;;;;;15.73;6.75;;;4.90;99.90;;;;;;7353311;32;20117;-60
2022/03/01 18:56:29;;;;;;;13.07;5.45;;;4.70;99.90;;;;;;7356848;32;20494;-59
2022/03/01 19:00:31;;;;;;;8.70;4.97;;;4.60;99.90;;;;;;7356895;32;20103;-60
2022/03/01 19:04:33;;;;;;;12.00;5.47;;;4.50;99.90;;;;;;7353406;32;20431;-59
2022/03/01 19:08:37;;;;;;;10.15;5.20;;;4.40;99.90;;;;;;7367890;32;20096;-60
2022/03/01 19:12:41;;;;;;;10.65;5.40;;;4.30;99.90;;;;;;7360204;32;20628;-59
2022/03/01 19:16:43;;;;;;;11.85;5.90;;;4.10;99.90;;;;;;7364980;32;20134;-60
2022/03/01 19:20:45;;;;;;;10.40;4.95;;;4.10;99.90;;;;;;7360156;32;20098;-58
2022/03/01 19:25:06;;;;;;;10.93;5.28;;;4.00;99.90;;;;;;7360381;32;20146;-60
2022/03/01 19:29:08;;;;;;;11.32;5.03;;;3.90;99.90;;;;;;7357225;32;20790;-59
2022/03/01 19:33:10;;;;;;;9.02;4.75;;;3.90;99.90;;;;;;7369966;32;20125;-62
2022/03/01 19:37:12;;;;;;;10.55;5.47;;;3.80;99.90;;;;;;7362426;32;20240;-61
2022/03/01 19:41:14;;;;;;;9.88;5.30;;;3.70;99.90;;;;;;7359118;32;20202;-60
2022/03/01 19:45:16;;;;;;;10.13;5.25;;;3.70;99.90;;;;;;7354640;32;20126;-60
2022/03/01 19:49:19;;;;;;;12.32;5.87;;;3.70;99.90;;;;;;7356563;32;20103;-57
2022/03/01 19:53:20;;;;;;;15.10;6.05;;;3.60;99.90;;;;;;7361535;32;20099;-58
2022/03/01 19:57:22;;;;;;;14.02;6.20;;;3.50;99.90;;;;;;7359266;32;20293;-59
2022/03/01 20:01:24;;;;;;;13.62;6.87;;;3.40;99.90;;;;;;7361826;32;20203;-59
2022/03/01 20:05:28;;;;;;;13.57;7.60;;;3.40;99.90;;;;;;7357427;32;20107;-60
2022/03/01 20:09:30;;;;;;;19.25;6.37;;;3.40;99.90;;;;;;7357786;32;20107;-60
2022/03/01 20:13:34;;;;;;;13.65;7.37;;;3.40;99.90;;;;;;7355342;32;20111;-59
2022/03/01 20:17:37;;;;;;;18.65;9.00;;;3.30;99.90;;;;;;7360621;32;20115;-58
2022/03/01 20:21:39;;;;;;;18.87;8.77;;;3.30;99.90;;;;;;7362526;32;20225;-59
2022/03/01 20:25:41;;;;;;;12.48;7.55;;;3.20;99.90;;;;;;7364086;32;20098;-62
2022/03/01 20:29:43;;;;;;;14.43;7.35;;;3.20;99.90;;;;;;7365209;32;20132;-60
2022/03/01 20:33:45;;;;;;;15.20;8.38;;;3.20;99.90;;;;;;7358228;32;20111;-60
2022/03/01 20:37:52;;;;;;;;;;;3.10;99.90;;;;;;7367813;32;20760;-60
2022/03/01 20:41:54;;;;;;;18.33;8.00;;;3.00;99.90;;;;;;7356252;32;20002;-61
2022/03/01 20:45:56;;;;;;;19.60;9.27;;;2.90;99.90;;;;;;7356047;32;20130;-59
2022/03/01 20:49:58;;;;;;;16.08;9.05;;;2.90;99.90;;;;;;7356181;32;20508;-61
2022/03/01 20:53:59;;;;;;;17.52;9.00;;;2.90;99.90;;;;;;7361691;32;20726;-61
2022/03/01 20:58:02;;;;;;;17.60;8.93;;;2.90;99.90;;;;;;7360658;32;20178;-60
2022/03/01 21:02:03;;;;;;;17.70;9.30;;;2.80;99.90;;;;;;7361842;32;20209;-61
2022/03/01 21:06:06;;;;;;;16.15;9.27;;;2.90;99.90;;;;;;7363685;32;20107;-60
2022/03/01 21:10:08;;;;;;;18.30;8.90;;;2.90;99.90;;;;;;7366657;32;20740;-61
2022/03/01 21:14:09;;;;;;;16.65;8.20;;;2.80;99.90;;;;;;7363690;32;20213;-61
2022/03/01 21:18:11;;;;;;;17.17;9.52;;;2.90;99.90;;;;;;7359441;32;20602;-60
2022/03/01 21:22:13;;;;;;;16.20;8.50;;;2.80;99.90;;;;;;7354529;32;20132;-59
2022/03/01 21:26:15;;;;;;;15.65;8.98;;;2.90;99.90;;;;;;7360304;32;20110;-58
2022/03/01 21:30:18;;;;;;;17.95;9.27;;;3.00;99.90;;;;;;7355284;32;20172;-60
2022/03/01 21:34:20;;;;;;;13.85;8.48;;;3.00;99.90;;;;;;7362751;32;20236;-61